createdAt,value
2019-05-03T00:00:26.834Z,11.46
2019-05-03T00:01:26.824Z,11.44
2019-05-03T00:02:26.817Z,11.42
2019-05-03T00:03:26.807Z,11.46
2019-05-03T00:04:26.802Z,11.49
2019-05-03T00:05:26.796Z,11.46
2019-05-03T00:06:26.791Z,11.46
2019-05-03T00:07:26.790Z,11.57
2019-05-03T00:08:26.779Z,11.59
2019-05-03T00:09:26.769Z,11.49
2019-05-03T00:10:26.764Z,11.56
2019-05-03T00:11:26.752Z,11.49
2019-05-03T00:12:26.745Z,11.56
2019-05-03T00:13:26.743Z,11.56
2019-05-03T00:14:26.737Z,11.54
2019-05-03T00:15:26.724Z,11.45
2019-05-03T00:16:26.717Z,11.46
2019-05-03T00:17:26.716Z,11.45
2019-05-03T00:18:26.708Z,11.46
2019-05-03T00:19:26.703Z,11.51
2019-05-03T00:20:26.700Z,11.51
2019-05-03T00:21:26.686Z,11.45
2019-05-03T00:22:26.680Z,11.41
2019-05-03T00:23:26.671Z,11.49
2019-05-03T00:24:26.669Z,11.48
2019-05-03T00:25:26.662Z,11.45
2019-05-03T00:26:26.656Z,11.46
2019-05-03T00:27:26.648Z,11.42
2019-05-03T00:28:26.680Z,11.31
2019-05-03T00:29:26.636Z,11.35
2019-05-03T00:30:26.622Z,11.33
2019-05-03T00:31:26.620Z,11.33
2019-05-03T00:32:26.613Z,11.31
2019-05-03T00:33:26.600Z,11.31
2019-05-03T00:34:26.595Z,11.35
2019-05-03T00:35:26.589Z,11.30
2019-05-03T00:36:26.584Z,11.30
2019-05-03T00:37:26.592Z,11.42
2019-05-03T00:38:26.573Z,11.36
2019-05-03T00:39:26.565Z,11.39
2019-05-03T00:40:26.564Z,11.38
2019-05-03T00:41:26.547Z,11.41
2019-05-03T00:42:26.541Z,11.42
2019-05-03T00:43:26.532Z,11.49
2019-05-03T00:44:26.528Z,11.45
2019-05-03T00:45:26.524Z,11.51
2019-05-03T00:46:26.517Z,11.39
2019-05-03T00:47:26.505Z,11.28
2019-05-03T00:48:26.502Z,11.28
2019-05-03T00:49:26.495Z,11.38
2019-05-03T00:50:26.490Z,11.36
2019-05-03T00:51:26.487Z,11.33
2019-05-03T00:52:26.476Z,11.35
2019-05-03T00:53:26.465Z,11.36
2019-05-03T00:54:26.459Z,11.36
2019-05-03T00:55:26.453Z,11.31
2019-05-03T00:56:26.444Z,11.33
2019-05-03T00:57:26.441Z,11.38
2019-05-03T00:58:26.434Z,11.27
2019-05-03T00:59:26.425Z,11.27
2019-05-03T01:00:26.419Z,11.27
2019-05-03T01:01:26.407Z,11.26
2019-05-03T01:02:26.464Z,11.31
2019-05-03T01:03:26.399Z,11.24
2019-05-03T01:04:26.391Z,11.19
2019-05-03T01:05:26.380Z,11.13
2019-05-03T01:06:26.373Z,11.13
2019-05-03T01:07:26.368Z,11.13
2019-05-03T01:08:26.361Z,11.21
2019-05-03T01:09:26.358Z,11.16
2019-05-03T01:10:26.352Z,11.20
2019-05-03T01:11:26.348Z,11.17
2019-05-03T01:12:26.335Z,11.26
2019-05-03T01:13:26.324Z,11.13
2019-05-03T01:14:26.318Z,11.19
2019-05-03T01:15:26.313Z,11.16
2019-05-03T01:16:26.310Z,11.23
2019-05-03T01:17:26.303Z,11.13
2019-05-03T01:18:26.295Z,11.20
2019-05-03T01:19:26.285Z,11.16
2019-05-03T01:20:26.279Z,11.13
2019-05-03T01:21:26.275Z,11.19
2019-05-03T01:22:26.270Z,11.13
2019-05-03T01:23:26.258Z,11.12
2019-05-03T01:24:26.253Z,11.19
2019-05-03T01:25:32.144Z,11.17
2019-05-03T01:26:26.232Z,11.20
2019-05-03T01:27:26.227Z,11.16
2019-05-03T01:28:26.218Z,11.13
2019-05-03T01:29:26.215Z,11.19
2019-05-03T01:30:26.209Z,11.17
2019-05-03T01:31:26.204Z,11.16
2019-05-03T01:32:26.197Z,11.16
2019-05-03T01:33:26.186Z,11.13
2019-05-03T01:34:26.185Z,11.11
2019-05-03T01:35:26.177Z,11.03
2019-05-03T01:36:26.168Z,11.12
2019-05-03T01:37:26.156Z,11.06
2019-05-03T01:38:26.150Z,11.02
2019-05-03T01:39:26.140Z,10.95
2019-05-03T01:40:26.134Z,10.94
2019-05-03T01:41:26.136Z,10.86
2019-05-03T01:42:26.123Z,10.83
2019-05-03T01:43:26.117Z,10.80
2019-05-03T01:44:26.108Z,10.80
2019-05-03T01:45:26.095Z,10.70
2019-05-03T01:46:26.088Z,10.70
2019-05-03T01:47:26.083Z,10.73
2019-05-03T01:48:26.079Z,10.76
2019-05-03T01:49:26.072Z,10.63
2019-05-03T01:50:26.067Z,10.66
2019-05-03T01:51:26.054Z,10.57
2019-05-03T01:52:26.047Z,10.66
2019-05-03T01:53:26.043Z,10.52
2019-05-03T01:54:26.037Z,10.66
2019-05-03T01:55:26.026Z,10.58
2019-05-03T01:56:26.019Z,10.68
2019-05-03T01:57:26.007Z,10.62
2019-05-03T01:58:26.001Z,10.63
2019-05-03T01:59:25.994Z,10.62
2019-05-03T02:00:25.986Z,10.78
2019-05-03T02:01:25.982Z,10.68
2019-05-03T02:02:25.988Z,10.70
2019-05-03T02:03:25.972Z,10.75
2019-05-03T02:04:25.963Z,10.76
2019-05-03T02:05:25.957Z,10.76
2019-05-03T02:06:25.944Z,10.83
2019-05-03T02:07:25.943Z,10.90
2019-05-03T02:08:25.934Z,10.93
2019-05-03T02:09:25.930Z,10.86
2019-05-03T02:10:25.918Z,10.93
2019-05-03T02:11:25.905Z,10.94
2019-05-03T02:12:25.898Z,10.94
2019-05-03T02:13:25.896Z,10.94
2019-05-03T02:14:25.888Z,10.99
2019-05-03T02:15:25.883Z,10.99
2019-05-03T02:16:25.877Z,10.99
2019-05-03T02:17:25.865Z,11.06
2019-05-03T02:18:25.858Z,11.08
2019-05-03T02:19:25.850Z,11.12
2019-05-03T02:20:25.841Z,11.08
2019-05-03T02:21:25.838Z,11.06
2019-05-03T02:22:25.830Z,11.11
2019-05-03T02:23:25.819Z,11.11
2019-05-03T02:24:25.812Z,11.03
2019-05-03T02:25:25.809Z,11.08
2019-05-03T02:26:25.803Z,11.02
2019-05-03T02:27:25.797Z,10.94
2019-05-03T02:28:25.790Z,10.94
2019-05-03T02:29:25.779Z,10.94
2019-05-03T02:30:25.773Z,10.91
2019-05-03T02:31:25.765Z,10.90
2019-05-03T02:32:25.758Z,10.81
2019-05-03T02:33:25.753Z,10.87
2019-05-03T02:34:25.747Z,10.78
2019-05-03T02:35:25.737Z,10.80
2019-05-03T02:36:25.730Z,10.73
2019-05-03T02:37:25.718Z,10.78
2019-05-03T02:38:25.712Z,10.70
2019-05-03T02:39:25.711Z,10.66
2019-05-03T02:40:25.704Z,10.80
2019-05-03T02:41:25.690Z,10.69
2019-05-03T02:42:26.541Z,10.84
2019-05-03T02:43:26.295Z,10.78
2019-05-03T02:44:26.612Z,10.70
2019-05-03T02:45:26.009Z,10.70
2019-05-03T02:46:25.691Z,10.72
2019-05-03T02:47:26.564Z,10.80
2019-05-03T02:48:25.758Z,10.73
2019-05-03T02:49:25.994Z,10.68
2019-05-03T02:50:26.157Z,10.78
2019-05-03T02:51:26.166Z,10.81
2019-05-03T02:52:25.692Z,10.70
2019-05-03T02:53:26.027Z,10.84
2019-05-03T02:54:27.023Z,10.65
2019-05-03T02:55:26.272Z,10.58
2019-05-03T02:56:26.233Z,10.68
2019-05-03T02:57:25.931Z,10.73
2019-05-03T02:58:25.605Z,10.68
2019-05-03T02:59:26.352Z,10.68
2019-05-03T03:00:25.681Z,10.70
2019-05-03T03:01:26.524Z,10.68
2019-05-03T03:02:26.390Z,10.70
2019-05-03T03:03:25.689Z,10.70
2019-05-03T03:04:26.134Z,10.73
2019-05-03T03:05:25.519Z,10.73
2019-05-03T03:06:26.676Z,10.66
2019-05-03T03:07:25.974Z,10.62
2019-05-03T03:08:25.496Z,10.54
2019-05-03T03:09:26.125Z,10.57
2019-05-03T03:10:26.424Z,10.43
2019-05-03T03:11:26.109Z,10.47
2019-05-03T03:12:25.857Z,10.49
2019-05-03T03:13:25.642Z,10.43
2019-05-03T03:14:25.875Z,10.35
2019-05-03T03:15:25.736Z,10.49
2019-05-03T03:16:25.436Z,10.47
2019-05-03T03:17:25.684Z,10.46
2019-05-03T03:18:25.689Z,10.46
2019-05-03T03:19:26.195Z,10.42
2019-05-03T03:20:25.556Z,10.44
2019-05-03T03:21:26.159Z,10.43
2019-05-03T03:22:26.023Z,10.62
2019-05-03T03:23:26.259Z,10.55
2019-05-03T03:24:25.947Z,10.52
2019-05-03T03:25:25.950Z,10.66
2019-05-03T03:26:37.623Z,10.55
2019-05-03T03:27:25.864Z,10.70
2019-05-03T03:28:25.488Z,10.70
2019-05-03T03:29:25.615Z,10.68
2019-05-03T03:30:29.300Z,10.66
2019-05-03T03:31:28.585Z,10.72
2019-05-03T03:32:29.322Z,10.68
2019-05-03T03:33:28.194Z,10.69
2019-05-03T03:34:27.951Z,10.73
2019-05-03T03:35:29.954Z,10.70
2019-05-03T03:36:44.725Z,10.68
2019-05-03T03:37:25.989Z,10.76
2019-05-03T03:38:26.139Z,10.73
2019-05-03T03:39:26.017Z,10.69
2019-05-03T03:40:25.577Z,10.60
2019-05-03T03:41:25.246Z,10.54
2019-05-03T03:42:25.332Z,10.58
2019-05-03T03:43:25.922Z,10.54
2019-05-03T03:44:25.760Z,10.51
2019-05-03T03:45:25.546Z,10.55
2019-05-03T03:46:25.382Z,10.51
2019-05-03T03:47:27.283Z,10.44
2019-05-03T03:48:26.584Z,10.44
2019-05-03T03:49:26.254Z,10.44
2019-05-03T03:50:25.974Z,10.47
2019-05-03T03:51:26.315Z,10.49
2019-05-03T03:52:25.599Z,10.38
2019-05-03T03:53:26.452Z,10.38
2019-05-03T03:54:26.062Z,10.36
2019-05-03T03:55:26.431Z,10.39
2019-05-03T03:56:25.542Z,10.38
2019-05-03T03:57:25.387Z,10.24
2019-05-03T03:58:26.978Z,10.28
2019-05-03T03:59:26.765Z,10.25
2019-05-03T04:00:25.778Z,10.31
2019-05-03T04:01:26.789Z,10.24
2019-05-03T04:02:26.539Z,10.34
2019-05-03T04:03:25.999Z,10.26
2019-05-03T04:04:25.953Z,10.18
2019-05-03T04:05:25.617Z,10.16
2019-05-03T04:06:26.908Z,10.17
2019-05-03T04:07:26.110Z,10.13
2019-05-03T04:08:25.282Z,10.10
2019-05-03T04:09:25.717Z,10.06
2019-05-03T04:10:26.156Z,10.02
2019-05-03T04:11:25.906Z,9.99
2019-05-03T04:12:26.460Z,9.95
2019-05-03T04:13:25.660Z,9.92
2019-05-03T04:14:25.462Z,10.04
2019-05-03T04:15:26.083Z,9.96
2019-05-03T04:16:25.901Z,10.13
2019-05-03T04:17:26.146Z,10.13
2019-05-03T04:18:25.566Z,10.06
2019-05-03T04:19:25.239Z,10.06
2019-05-03T04:20:25.697Z,10.11
2019-05-03T04:21:25.691Z,10.17
2019-05-03T04:22:25.537Z,10.22
2019-05-03T04:23:26.415Z,10.22
2019-05-03T04:24:25.872Z,10.18
2019-05-03T04:25:26.170Z,10.25
2019-05-03T04:26:29.600Z,10.22
2019-05-03T04:27:27.606Z,10.22
2019-05-03T04:28:25.566Z,10.25
2019-05-03T04:29:25.517Z,10.18
2019-05-03T04:30:25.691Z,10.17
2019-05-03T04:31:26.178Z,10.26
2019-05-03T04:32:28.811Z,10.28
2019-05-03T04:33:26.970Z,10.16
2019-05-03T04:34:26.366Z,10.24
2019-05-03T04:35:26.661Z,10.17
2019-05-03T04:36:26.176Z,10.10
2019-05-03T04:37:26.589Z,10.06
2019-05-03T04:38:25.741Z,9.99
2019-05-03T04:39:25.611Z,9.98
2019-05-03T04:40:26.106Z,9.98
2019-05-03T04:41:26.844Z,9.92
2019-05-03T04:42:25.542Z,9.78
2019-05-03T04:43:26.478Z,9.73
2019-05-03T04:44:26.005Z,9.75
2019-05-03T04:45:25.517Z,9.75
2019-05-03T04:46:25.987Z,9.74
2019-05-03T04:47:26.446Z,9.71
2019-05-03T04:48:25.329Z,9.73
2019-05-03T04:49:26.228Z,9.70
2019-05-03T04:50:25.472Z,9.78
2019-05-03T04:51:25.843Z,9.77
2019-05-03T04:52:25.953Z,9.77
2019-05-03T04:53:25.975Z,9.73
2019-05-03T04:54:25.389Z,9.78
2019-05-03T04:55:26.724Z,9.74
2019-05-03T04:56:26.047Z,9.78
2019-05-03T04:57:36.713Z,9.83
2019-05-03T04:58:25.847Z,9.75
2019-05-03T04:59:25.495Z,9.86
2019-05-03T05:00:25.627Z,9.89
2019-05-03T05:01:26.104Z,9.92
2019-05-03T05:02:26.308Z,9.91
2019-05-03T05:03:26.583Z,9.88
2019-05-03T05:04:25.414Z,9.91
2019-05-03T05:05:26.152Z,9.95
2019-05-03T05:06:25.815Z,9.99
2019-05-03T05:07:26.060Z,10.01
2019-05-03T05:08:25.318Z,9.99
2019-05-03T05:09:25.885Z,10.02
2019-05-03T05:10:25.997Z,10.06
2019-05-03T05:11:26.356Z,10.13
2019-05-03T05:12:25.155Z,10.26
2019-05-03T05:13:25.110Z,10.25
2019-05-03T05:14:25.873Z,10.28
2019-05-03T05:15:26.550Z,10.20
2019-05-03T05:16:25.174Z,10.20
2019-05-03T05:17:26.312Z,10.25
2019-05-03T05:18:26.380Z,10.38
2019-05-03T05:19:25.406Z,10.39
2019-05-03T05:20:24.854Z,10.42
2019-05-03T05:21:25.267Z,10.46
2019-05-03T05:22:24.735Z,10.47
2019-05-03T05:23:25.096Z,10.42
2019-05-03T05:24:25.632Z,10.46
2019-05-03T05:25:25.118Z,10.47
2019-05-03T05:26:24.836Z,10.44
2019-05-03T05:27:25.661Z,10.46
2019-05-03T05:28:24.987Z,10.51
2019-05-03T05:29:25.338Z,10.47
2019-05-03T05:30:25.233Z,10.55
2019-05-03T05:31:25.461Z,10.57
2019-05-03T05:32:24.736Z,10.65
2019-05-03T05:33:25.254Z,10.66
2019-05-03T05:34:24.596Z,10.68
2019-05-03T05:35:24.843Z,10.75
2019-05-03T05:36:24.457Z,10.83
2019-05-03T05:37:25.039Z,10.88
2019-05-03T05:38:25.597Z,10.87
2019-05-03T05:39:24.564Z,10.90
2019-05-03T05:40:24.618Z,10.95
2019-05-03T05:41:24.540Z,11.05
2019-05-03T05:42:25.077Z,11.16
2019-05-03T05:43:25.534Z,11.08
2019-05-03T05:44:24.831Z,11.09
2019-05-03T05:45:24.675Z,11.16
2019-05-03T05:46:24.907Z,11.26
2019-05-03T05:47:25.405Z,11.27
2019-05-03T05:48:24.668Z,11.33
2019-05-03T05:49:25.978Z,11.44
2019-05-03T05:50:25.386Z,11.45
2019-05-03T05:51:24.844Z,11.48
2019-05-03T05:52:24.595Z,11.57
2019-05-03T05:53:25.384Z,11.66
2019-05-03T05:54:24.588Z,11.70
2019-05-03T05:55:25.290Z,11.79
2019-05-03T05:56:25.097Z,11.93
2019-05-03T05:57:25.601Z,11.98
2019-05-03T05:58:25.627Z,12.04
2019-05-03T05:59:24.826Z,11.98
2019-05-03T06:00:25.671Z,12.12
2019-05-03T06:01:25.011Z,12.23
2019-05-03T06:02:25.369Z,12.36
2019-05-03T06:03:25.283Z,12.51
2019-05-03T06:04:24.593Z,12.71
2019-05-03T06:05:25.179Z,12.92
2019-05-03T06:06:24.487Z,12.96
2019-05-03T06:07:24.848Z,13.13
2019-05-03T06:08:25.111Z,13.10
2019-05-03T06:09:25.633Z,13.17
2019-05-03T06:10:24.883Z,13.13
2019-05-03T06:11:25.824Z,13.17
2019-05-03T06:12:25.067Z,13.25
2019-05-03T06:13:24.078Z,13.19
2019-05-03T06:14:24.508Z,13.27
2019-05-03T06:15:25.015Z,13.22
2019-05-03T06:16:24.516Z,13.27
2019-05-03T06:17:24.521Z,13.22
2019-05-03T06:18:25.057Z,13.24
2019-05-03T06:19:25.302Z,13.29
2019-05-03T06:20:24.577Z,13.29
2019-05-03T06:21:25.097Z,13.32
2019-05-03T06:22:25.699Z,13.43
2019-05-03T06:23:24.799Z,13.47
2019-05-03T06:24:24.922Z,13.84
2019-05-03T06:25:26.572Z,15.09
2019-05-03T06:26:25.302Z,16.10
2019-05-03T06:27:24.435Z,17.07
2019-05-03T06:28:25.179Z,17.86
2019-05-03T06:29:24.794Z,18.62
2019-05-03T06:30:24.837Z,18.83
2019-05-03T06:31:25.288Z,19.38
2019-05-03T06:32:25.401Z,20.17
2019-05-03T06:33:24.472Z,20.91
2019-05-03T06:34:25.191Z,21.56
2019-05-03T06:35:24.421Z,22.11
2019-05-03T06:36:24.392Z,22.57
2019-05-03T06:37:25.116Z,23.04
2019-05-03T06:38:24.443Z,23.15
2019-05-03T06:39:24.894Z,23.44
2019-05-03T06:40:25.276Z,23.77
2019-05-03T06:41:25.052Z,24.05
2019-05-03T06:42:25.493Z,24.24
2019-05-03T06:43:24.463Z,24.39
2019-05-03T06:44:28.262Z,24.71
2019-05-03T06:45:25.118Z,25.17
2019-05-03T06:46:30.253Z,25.41
2019-05-03T06:47:25.337Z,25.14
2019-05-03T06:48:28.019Z,25.46
2019-05-03T06:49:25.504Z,25.90
2019-05-03T06:50:25.230Z,25.48
2019-05-03T06:51:24.842Z,25.69
2019-05-03T06:52:25.488Z,24.77
2019-05-03T06:53:25.402Z,24.71
2019-05-03T06:54:28.316Z,24.71
2019-05-03T06:55:24.784Z,25.26
2019-05-03T06:56:28.900Z,25.31
2019-05-03T06:57:25.368Z,25.89
2019-05-03T06:58:31.251Z,26.56
2019-05-03T06:59:24.996Z,25.72
2019-05-03T07:00:24.801Z,25.81
2019-05-03T07:01:25.308Z,25.79
2019-05-03T07:02:25.141Z,25.60
2019-05-03T07:03:25.152Z,25.17
2019-05-03T07:04:24.595Z,24.71
2019-05-03T07:05:25.104Z,24.77
2019-05-03T07:06:36.726Z,25.24
2019-05-03T07:07:27.778Z,25.24
2019-05-03T07:08:25.365Z,25.36
2019-05-03T07:09:25.035Z,24.77
2019-05-03T07:10:24.938Z,24.83
2019-05-03T07:11:24.732Z,24.29
2019-05-03T07:12:25.019Z,23.42
2019-05-03T07:13:25.454Z,23.09
2019-05-03T07:14:24.678Z,23.45
2019-05-03T07:15:25.173Z,23.42
2019-05-03T07:16:25.296Z,23.79
2019-05-03T07:17:24.813Z,23.47
2019-05-03T07:18:24.768Z,23.03
2019-05-03T07:19:24.988Z,23.16
2019-05-03T07:20:25.461Z,23.19
2019-05-03T07:21:24.734Z,22.91
2019-05-03T07:22:24.493Z,23.09
2019-05-03T07:23:24.573Z,23.15
2019-05-03T07:24:24.874Z,22.59
2019-05-03T07:25:25.594Z,22.39
2019-05-03T07:26:25.448Z,22.12
2019-05-03T07:27:24.760Z,22.19
2019-05-03T07:28:24.812Z,23.06
2019-05-03T07:29:25.514Z,23.15
2019-05-03T07:30:24.783Z,23.56
2019-05-03T07:31:25.482Z,23.79
2019-05-03T07:32:24.698Z,24.09
2019-05-03T07:33:25.422Z,24.11
2019-05-03T07:34:24.813Z,24.52
2019-05-03T07:35:25.188Z,25.02
2019-05-03T07:36:28.094Z,25.94
2019-05-03T07:37:24.651Z,26.53
2019-05-03T07:38:24.848Z,26.88
2019-05-03T07:39:24.629Z,27.12
2019-05-03T07:40:25.298Z,27.05
2019-05-03T07:41:26.548Z,27.38
2019-05-03T07:42:25.636Z,27.66
2019-05-03T07:43:24.576Z,27.76
2019-05-03T07:44:25.552Z,28.18
2019-05-03T07:45:25.394Z,28.73
2019-05-03T07:46:24.744Z,28.92
2019-05-03T07:47:24.768Z,29.20
2019-05-03T07:48:25.516Z,29.54
2019-05-03T07:49:24.971Z,29.45
2019-05-03T07:50:25.850Z,29.62
2019-05-03T07:51:24.894Z,29.95
2019-05-03T07:52:25.865Z,29.92
2019-05-03T07:53:25.259Z,30.26
2019-05-03T07:54:24.889Z,30.15
2019-05-03T07:55:24.980Z,30.11
2019-05-03T07:56:25.469Z,29.29
2019-05-03T07:57:25.443Z,28.18
2019-05-03T07:58:25.307Z,27.78
2019-05-03T07:59:25.065Z,27.65
2019-05-03T08:00:25.386Z,28.33
2019-05-03T08:01:25.195Z,28.36
2019-05-03T08:02:27.265Z,28.08
2019-05-03T08:03:24.470Z,26.93
2019-05-03T08:04:25.558Z,26.61
2019-05-03T08:05:24.737Z,26.79
2019-05-03T08:06:24.802Z,27.61
2019-05-03T08:07:25.804Z,28.11
2019-05-03T08:08:25.078Z,28.55
2019-05-03T08:09:24.681Z,28.72
2019-05-03T08:10:25.611Z,28.15
2019-05-03T08:11:24.906Z,28.06
2019-05-03T08:12:24.773Z,27.06
2019-05-03T08:13:25.327Z,27.58
2019-05-03T08:14:25.210Z,27.18
2019-05-03T08:15:24.655Z,27.12
2019-05-03T08:16:25.202Z,27.78
2019-05-03T08:17:25.551Z,28.50
2019-05-03T08:18:25.749Z,28.85
2019-05-03T08:19:26.988Z,28.45
2019-05-03T08:20:24.903Z,27.31
2019-05-03T08:21:25.201Z,28.67
2019-05-03T08:22:25.570Z,28.67
2019-05-03T08:23:29.954Z,27.84
2019-05-03T08:24:25.317Z,27.52
2019-05-03T08:25:24.983Z,27.33
2019-05-03T08:26:25.725Z,27.33
2019-05-03T08:27:25.138Z,26.54
2019-05-03T08:28:24.737Z,26.20
2019-05-03T08:29:24.954Z,26.79
2019-05-03T08:30:25.051Z,26.81
2019-05-03T08:31:26.483Z,26.79
2019-05-03T08:32:24.661Z,26.11
2019-05-03T08:33:25.016Z,25.48
2019-05-03T08:34:25.750Z,24.89
2019-05-03T08:35:24.648Z,24.71
2019-05-03T08:36:24.889Z,24.59
2019-05-03T08:37:24.667Z,24.99
2019-05-03T08:38:25.782Z,25.60
2019-05-03T08:39:25.344Z,26.61
2019-05-03T08:40:24.721Z,27.39
2019-05-03T08:41:24.798Z,26.97
2019-05-03T08:42:25.374Z,26.17
2019-05-03T08:43:25.511Z,25.67
2019-05-03T08:44:25.110Z,26.96
2019-05-03T08:45:25.607Z,27.62
2019-05-03T08:46:25.309Z,27.27
2019-05-03T08:47:24.930Z,27.86
2019-05-03T08:48:25.102Z,28.67
2019-05-03T08:49:25.499Z,29.12
2019-05-03T08:50:25.651Z,29.54
2019-05-03T08:51:25.135Z,29.99
2019-05-03T08:52:24.984Z,30.61
2019-05-03T08:53:25.632Z,31.10
2019-05-03T08:54:25.529Z,31.34
2019-05-03T08:55:25.089Z,31.62
2019-05-03T08:56:24.822Z,31.88
2019-05-03T08:57:25.407Z,32.09
2019-05-03T08:58:25.582Z,32.53
2019-05-03T08:59:29.694Z,32.96
2019-05-03T09:00:25.034Z,33.50
2019-05-03T09:01:25.296Z,33.50
2019-05-03T09:02:25.865Z,33.28
2019-05-03T09:03:25.065Z,32.22
2019-05-03T09:04:35.994Z,32.13
2019-05-03T09:05:25.174Z,32.03
2019-05-03T09:06:24.953Z,31.99
2019-05-03T09:07:25.459Z,31.41
2019-05-03T09:08:25.041Z,30.91
2019-05-03T09:09:25.516Z,30.96
2019-05-03T09:10:25.059Z,29.95
2019-05-03T09:11:31.800Z,29.45
2019-05-03T09:12:25.324Z,29.14
2019-05-03T09:13:25.260Z,28.48
2019-05-03T09:14:38.495Z,27.78
2019-05-03T09:15:25.060Z,27.81
2019-05-03T09:16:25.271Z,29.45
2019-05-03T09:17:25.090Z,30.36
2019-05-03T09:18:25.837Z,30.49
2019-05-03T09:19:25.395Z,29.82
2019-05-03T09:20:25.157Z,28.88
2019-05-03T09:21:25.624Z,27.52
2019-05-03T09:22:25.629Z,27.02
2019-05-03T09:23:26.043Z,26.51
2019-05-03T09:24:25.168Z,25.61
2019-05-03T09:25:25.172Z,24.84
2019-05-03T09:26:29.262Z,24.46
2019-05-03T09:27:25.254Z,23.72
2019-05-03T09:28:28.812Z,23.50
2019-05-03T09:29:25.560Z,23.37
2019-05-03T09:30:25.253Z,23.18
2019-05-03T09:31:25.234Z,23.06
2019-05-03T09:32:25.656Z,22.61
2019-05-03T09:33:25.244Z,22.51
2019-05-03T09:34:25.746Z,21.96
2019-05-03T09:35:30.543Z,21.86
2019-05-03T09:36:25.584Z,21.56
2019-05-03T09:37:25.270Z,21.34
2019-05-03T09:38:25.728Z,21.05
2019-05-03T09:39:25.278Z,20.87
2019-05-03T09:40:25.285Z,20.78
2019-05-03T09:41:25.791Z,20.50
2019-05-03T09:42:25.305Z,20.54
2019-05-03T09:43:25.304Z,20.20
2019-05-03T09:44:25.306Z,20.15
2019-05-03T09:45:25.315Z,20.07
2019-05-03T09:46:26.489Z,19.95
2019-05-03T09:47:25.408Z,19.94
2019-05-03T09:48:25.644Z,19.75
2019-05-03T09:49:25.484Z,19.76
2019-05-03T09:50:25.324Z,20.82
2019-05-03T09:51:25.551Z,21.34
2019-05-03T09:52:25.328Z,21.56
2019-05-03T09:53:25.665Z,21.71
2019-05-03T09:54:25.596Z,22.84
2019-05-03T09:55:25.461Z,22.36
2019-05-03T09:56:25.924Z,22.66
2019-05-03T09:57:25.348Z,21.83
2019-05-03T09:58:26.382Z,21.26
2019-05-03T09:59:25.558Z,20.91
2019-05-03T10:00:25.353Z,21.61
2019-05-03T10:01:25.615Z,21.11
2019-05-03T10:02:25.371Z,21.19
2019-05-03T10:03:25.369Z,20.73
2019-05-03T10:04:25.616Z,20.69
2019-05-03T10:05:25.684Z,19.75
2019-05-03T10:06:25.375Z,19.47
2019-05-03T10:07:25.919Z,19.47
2019-05-03T10:08:25.605Z,19.57
2019-05-03T10:09:26.350Z,19.97
2019-05-03T10:10:25.388Z,20.50
2019-05-03T10:11:25.528Z,20.63
2019-05-03T10:12:25.708Z,21.03
2019-05-03T10:13:27.150Z,20.71
2019-05-03T10:14:25.407Z,20.30
2019-05-03T10:15:26.059Z,20.72
2019-05-03T10:16:25.416Z,21.22
2019-05-03T10:17:25.416Z,21.43
2019-05-03T10:18:25.659Z,21.89
2019-05-03T10:19:37.112Z,22.20
2019-05-03T10:20:25.426Z,22.66
2019-05-03T10:21:25.824Z,23.25
2019-05-03T10:22:25.441Z,23.59
2019-05-03T10:23:25.440Z,23.79
2019-05-03T10:24:25.448Z,24.59
2019-05-03T10:25:25.456Z,25.01
2019-05-03T10:26:25.461Z,25.69
2019-05-03T10:27:25.471Z,26.54
2019-05-03T10:28:25.477Z,27.16
2019-05-03T10:29:25.478Z,27.87
2019-05-03T10:30:25.485Z,28.20
2019-05-03T10:31:25.494Z,28.73
2019-05-03T10:32:25.500Z,29.36
2019-05-03T10:33:26.175Z,28.46
2019-05-03T10:34:25.520Z,27.99
2019-05-03T10:35:25.527Z,27.40
2019-05-03T10:36:25.536Z,27.28
2019-05-03T10:37:25.539Z,26.91
2019-05-03T10:38:25.549Z,26.23
2019-05-03T10:39:26.337Z,25.97
2019-05-03T10:40:25.569Z,25.66
2019-05-03T10:41:25.574Z,25.23
2019-05-03T10:42:25.580Z,24.93
2019-05-03T10:43:25.590Z,24.77
2019-05-03T10:44:25.596Z,24.51
2019-05-03T10:45:27.951Z,24.06
2019-05-03T10:46:25.616Z,23.78
2019-05-03T10:47:25.635Z,23.56
2019-05-03T10:48:25.624Z,23.39
2019-05-03T10:49:25.625Z,22.94
2019-05-03T10:50:25.630Z,22.44
2019-05-03T10:51:25.638Z,21.56
2019-05-03T10:52:25.851Z,21.28
2019-05-03T10:53:25.651Z,21.06
2019-05-03T10:54:25.656Z,21.06
2019-05-03T10:55:25.662Z,21.13
2019-05-03T10:56:26.811Z,21.15
2019-05-03T10:57:25.671Z,21.31
2019-05-03T10:58:25.675Z,21.31
2019-05-03T10:59:25.675Z,20.81
2019-05-03T11:00:48.361Z,20.68
2019-05-03T11:01:25.678Z,20.91
2019-05-03T11:02:25.681Z,21.34
2019-05-03T11:03:25.684Z,22.05
2019-05-03T11:04:25.692Z,21.98
2019-05-03T11:05:25.696Z,22.17
2019-05-03T11:06:25.701Z,22.33
2019-05-03T11:07:25.839Z,22.17
2019-05-03T11:08:25.717Z,21.68
2019-05-03T11:09:26.082Z,21.64
2019-05-03T11:10:25.713Z,22.11
2019-05-03T11:11:25.970Z,22.19
2019-05-03T11:12:25.726Z,22.20
2019-05-03T11:13:26.437Z,21.81
2019-05-03T11:14:25.729Z,21.77
2019-05-03T11:15:26.007Z,21.24
2019-05-03T11:16:25.734Z,21.37
2019-05-03T11:17:25.780Z,20.93
2019-05-03T11:18:25.746Z,21.08
2019-05-03T11:19:25.753Z,21.21
2019-05-03T11:20:29.083Z,21.21
2019-05-03T11:21:28.884Z,21.16
2019-05-03T11:22:25.758Z,21.31
2019-05-03T11:23:25.763Z,21.45
2019-05-03T11:24:27.544Z,21.37
2019-05-03T11:25:25.773Z,21.66
2019-05-03T11:26:25.777Z,21.42
2019-05-03T11:27:25.777Z,21.42
2019-05-03T11:28:25.780Z,21.33
2019-05-03T11:29:25.786Z,21.31
2019-05-03T11:30:25.790Z,21.52
2019-05-03T11:31:25.790Z,21.15
2019-05-03T11:32:25.794Z,21.16
2019-05-03T11:33:25.798Z,21.21
2019-05-03T11:34:25.794Z,20.68
2019-05-03T11:35:25.806Z,21.03
2019-05-03T11:36:25.800Z,20.94
2019-05-03T11:37:25.808Z,21.09
2019-05-03T11:38:25.809Z,20.69
2019-05-03T11:39:25.815Z,20.37
2019-05-03T11:40:25.818Z,20.16
2019-05-03T11:41:32.169Z,19.87
2019-05-03T11:42:25.820Z,19.83
2019-05-03T11:43:25.823Z,19.71
2019-05-03T11:44:25.826Z,19.98
2019-05-03T11:45:25.825Z,19.92
2019-05-03T11:46:25.826Z,20.02
2019-05-03T11:47:27.725Z,19.80
2019-05-03T11:48:25.827Z,19.89
2019-05-03T11:49:25.833Z,19.67
2019-05-03T11:50:25.834Z,19.35
2019-05-03T11:51:25.835Z,19.25
2019-05-03T11:52:25.961Z,19.02
2019-05-03T11:53:25.835Z,18.96
2019-05-03T11:54:25.836Z,18.99
2019-05-03T11:55:26.859Z,19.10
2019-05-03T11:56:25.843Z,19.02
2019-05-03T11:57:26.352Z,18.87
2019-05-03T11:58:27.318Z,18.75
2019-05-03T11:59:26.591Z,18.72
2019-05-03T12:00:26.816Z,18.69
2019-05-03T12:01:25.889Z,18.62
2019-05-03T12:02:25.851Z,18.60
2019-05-03T12:03:25.850Z,18.44
2019-05-03T12:04:25.852Z,18.29
2019-05-03T12:05:25.854Z,18.50
2019-05-03T12:06:25.846Z,18.42
2019-05-03T12:07:38.545Z,18.50
2019-05-03T12:08:25.848Z,18.68
2019-05-03T12:09:25.865Z,18.71
2019-05-03T12:10:51.001Z,18.76
2019-05-03T12:11:25.857Z,18.83
2019-05-03T12:12:25.853Z,18.86
2019-05-03T12:13:25.851Z,18.91
2019-05-03T12:14:25.859Z,18.96
2019-05-03T12:15:25.854Z,18.84
2019-05-03T12:17:06.844Z,18.99
2019-05-03T12:17:29.009Z,19.06
2019-05-03T12:18:26.398Z,19.21
2019-05-03T12:19:30.817Z,19.25
2019-05-03T12:20:28.715Z,19.53
2019-05-03T12:21:27.799Z,19.71
2019-05-03T12:22:26.400Z,19.71
2019-05-03T12:23:26.632Z,20.04
2019-05-03T12:24:26.961Z,19.87
2019-05-03T12:25:26.588Z,19.82
2019-05-03T12:26:39.912Z,19.76
2019-05-03T12:27:25.853Z,19.49
2019-05-03T12:28:25.871Z,18.96
2019-05-03T12:29:25.856Z,19.31
2019-05-03T12:30:27.764Z,19.23
2019-05-03T12:31:36.613Z,19.16
2019-05-03T12:32:25.856Z,19.35
2019-05-03T12:33:26.225Z,19.52
2019-05-03T12:34:25.861Z,19.46
2019-05-03T12:35:25.859Z,19.46
2019-05-03T12:36:25.857Z,19.61
2019-05-03T12:37:25.855Z,19.72
2019-05-03T12:38:25.857Z,19.79
2019-05-03T12:39:30.020Z,19.78
2019-05-03T12:40:25.856Z,19.55
2019-05-03T12:41:25.860Z,19.57
2019-05-03T12:42:25.861Z,19.65
2019-05-03T12:43:25.866Z,19.71
2019-05-03T12:44:25.866Z,19.58
2019-05-03T12:45:25.859Z,19.80
2019-05-03T12:46:26.325Z,19.71
2019-05-03T12:47:25.866Z,19.49
2019-05-03T12:48:25.866Z,19.58
2019-05-03T12:49:25.863Z,19.53
2019-05-03T12:50:25.863Z,19.71
2019-05-03T12:51:25.993Z,19.79
2019-05-03T12:52:26.977Z,19.49
2019-05-03T12:53:25.864Z,19.43